sensor_id;sensor_type;location;lat;lon;timestamp;P1;durP1;ratioP1;P2;durP2;ratioP2
57746;SDS011;43580;44.014;20.466;2023-07-20T00:01:16;15.60;;;4.57;;
57746;SDS011;43580;44.014;20.466;2023-07-20T00:03:42;18.38;;;4.78;;
57746;SDS011;43580;44.014;20.466;2023-07-20T00:06:08;13.20;;;4.82;;
57746;SDS011;43580;44.014;20.466;2023-07-20T00:08:34;10.55;;;4.10;;
57746;SDS011;43580;44.014;20.466;2023-07-20T00:11:00;11.95;;;4.20;;
57746;SDS011;43580;44.014;20.466;2023-07-20T00:13:27;13.38;;;4.65;;
57746;SDS011;43580;44.014;20.466;2023-07-20T00:15:53;10.80;;;4.70;;
57746;SDS011;43580;44.014;20.466;2023-07-20T00:18:19;19.10;;;4.93;;
57746;SDS011;43580;44.014;20.466;2023-07-20T00:20:46;10.65;;;4.72;;
57746;SDS011;43580;44.014;20.466;2023-07-20T00:23:12;14.88;;;4.80;;
57746;SDS011;43580;44.014;20.466;2023-07-20T00:25:39;13.95;;;4.72;;
57746;SDS011;43580;44.014;20.466;2023-07-20T00:28:05;12.68;;;4.78;;
57746;SDS011;43580;44.014;20.466;2023-07-20T00:30:31;13.18;;;4.75;;
57746;SDS011;43580;44.014;20.466;2023-07-20T00:32:57;15.65;;;5.28;;
57746;SDS011;43580;44.014;20.466;2023-07-20T00:35:23;14.82;;;4.60;;
57746;SDS011;43580;44.014;20.466;2023-07-20T00:37:49;13.95;;;4.53;;
57746;SDS011;43580;44.014;20.466;2023-07-20T00:40:15;14.80;;;4.47;;
57746;SDS011;43580;44.014;20.466;2023-07-20T00:42:42;10.50;;;4.20;;
57746;SDS011;43580;44.014;20.466;2023-07-20T00:45:09;14.25;;;4.10;;
57746;SDS011;43580;44.014;20.466;2023-07-20T00:47:35;12.02;;;4.68;;
57746;SDS011;43580;44.014;20.466;2023-07-20T00:50:02;14.35;;;5.13;;
57746;SDS011;43580;44.014;20.466;2023-07-20T00:52:28;15.75;;;5.30;;
57746;SDS011;43580;44.014;20.466;2023-07-20T00:54:54;14.80;;;5.40;;
57746;SDS011;43580;44.014;20.466;2023-07-20T00:57:21;13.20;;;5.07;;
57746;SDS011;43580;44.014;20.466;2023-07-20T00:59:48;14.55;;;5.85;;
57746;SDS011;43580;44.014;20.466;2023-07-20T01:02:14;14.52;;;5.88;;
57746;SDS011;43580;44.014;20.466;2023-07-20T01:04:40;13.63;;;5.38;;
57746;SDS011;43580;44.014;20.466;2023-07-20T01:12:12;19.25;;;5.72;;
57746;SDS011;43580;44.014;20.466;2023-07-20T01:14:39;13.93;;;5.45;;
57746;SDS011;43580;44.014;20.466;2023-07-20T01:17:06;20.10;;;5.45;;
57746;SDS011;43580;44.014;20.466;2023-07-20T01:19:32;16.08;;;5.57;;
57746;SDS011;43580;44.014;20.466;2023-07-20T01:22:21;12.55;;;4.70;;
57746;SDS011;43580;44.014;20.466;2023-07-20T01:32:49;15.10;;;4.57;;
57746;SDS011;43580;44.014;20.466;2023-07-20T01:35:19;14.27;;;4.40;;
57746;SDS011;43580;44.014;20.466;2023-07-20T01:37:46;13.57;;;4.72;;
57746;SDS011;43580;44.014;20.466;2023-07-20T01:40:13;16.85;;;5.72;;
57746;SDS011;43580;44.014;20.466;2023-07-20T01:42:43;12.70;;;6.07;;
57746;SDS011;43580;44.014;20.466;2023-07-20T01:45:10;15.65;;;5.70;;
57746;SDS011;43580;44.014;20.466;2023-07-20T01:47:36;17.50;;;5.85;;
57746;SDS011;43580;44.014;20.466;2023-07-20T01:50:02;16.88;;;5.95;;
57746;SDS011;43580;44.014;20.466;2023-07-20T01:52:28;14.82;;;5.40;;
57746;SDS011;43580;44.014;20.466;2023-07-20T01:54:54;13.52;;;5.50;;
57746;SDS011;43580;44.014;20.466;2023-07-20T01:57:20;10.73;;;5.60;;
57746;SDS011;43580;44.014;20.466;2023-07-20T01:59:46;15.07;;;5.30;;
57746;SDS011;43580;44.014;20.466;2023-07-20T02:02:12;18.88;;;5.90;;
57746;SDS011;43580;44.014;20.466;2023-07-20T02:04:38;11.80;;;5.22;;
57746;SDS011;43580;44.014;20.466;2023-07-20T02:07:04;14.75;;;5.43;;
57746;SDS011;43580;44.014;20.466;2023-07-20T02:09:31;13.13;;;4.72;;
57746;SDS011;43580;44.014;20.466;2023-07-20T02:11:56;14.30;;;4.82;;
57746;SDS011;43580;44.014;20.466;2023-07-20T02:14:22;17.50;;;5.57;;
57746;SDS011;43580;44.014;20.466;2023-07-20T02:16:48;13.75;;;5.15;;
57746;SDS011;43580;44.014;20.466;2023-07-20T02:19:19;15.45;;;4.97;;
57746;SDS011;43580;44.014;20.466;2023-07-20T02:21:45;14.88;;;4.60;;
57746;SDS011;43580;44.014;20.466;2023-07-20T02:24:11;22.13;;;5.28;;
57746;SDS011;43580;44.014;20.466;2023-07-20T02:26:37;16.05;;;5.03;;
57746;SDS011;43580;44.014;20.466;2023-07-20T02:29:03;11.55;;;5.22;;
57746;SDS011;43580;44.014;20.466;2023-07-20T02:31:30;14.52;;;5.57;;
57746;SDS011;43580;44.014;20.466;2023-07-20T02:33:56;14.80;;;4.97;;
57746;SDS011;43580;44.014;20.466;2023-07-20T02:36:22;12.77;;;5.95;;
57746;SDS011;43580;44.014;20.466;2023-07-20T02:38:48;19.35;;;5.85;;
57746;SDS011;43580;44.014;20.466;2023-07-20T02:41:14;21.85;;;5.47;;
57746;SDS011;43580;44.014;20.466;2023-07-20T02:43:40;14.20;;;6.07;;
57746;SDS011;43580;44.014;20.466;2023-07-20T02:46:06;19.70;;;6.55;;
57746;SDS011;43580;44.014;20.466;2023-07-20T02:48:32;18.60;;;6.50;;
57746;SDS011;43580;44.014;20.466;2023-07-20T02:50:58;20.58;;;5.30;;
57746;SDS011;43580;44.014;20.466;2023-07-20T02:53:24;18.13;;;6.28;;
57746;SDS011;43580;44.014;20.466;2023-07-20T02:55:50;16.23;;;6.22;;
57746;SDS011;43580;44.014;20.466;2023-07-20T02:58:16;17.63;;;6.10;;
57746;SDS011;43580;44.014;20.466;2023-07-20T03:00:42;18.58;;;5.88;;
57746;SDS011;43580;44.014;20.466;2023-07-20T03:03:09;15.70;;;5.32;;
57746;SDS011;43580;44.014;20.466;2023-07-20T03:05:35;16.67;;;5.85;;
57746;SDS011;43580;44.014;20.466;2023-07-20T03:08:04;14.65;;;5.97;;
57746;SDS011;43580;44.014;20.466;2023-07-20T03:10:31;17.90;;;6.03;;
57746;SDS011;43580;44.014;20.466;2023-07-20T03:12:57;16.58;;;5.38;;
57746;SDS011;43580;44.014;20.466;2023-07-20T03:15:23;16.65;;;5.72;;
57746;SDS011;43580;44.014;20.466;2023-07-20T03:17:49;19.17;;;5.72;;
57746;SDS011;43580;44.014;20.466;2023-07-20T03:20:16;22.90;;;6.38;;
57746;SDS011;43580;44.014;20.466;2023-07-20T03:22:42;10.75;;;5.10;;
57746;SDS011;43580;44.014;20.466;2023-07-20T03:25:08;13.20;;;5.63;;
57746;SDS011;43580;44.014;20.466;2023-07-20T03:27:34;12.75;;;5.57;;
57746;SDS011;43580;44.014;20.466;2023-07-20T03:30:01;12.30;;;5.28;;
57746;SDS011;43580;44.014;20.466;2023-07-20T03:32:27;19.63;;;5.65;;
57746;SDS011;43580;44.014;20.466;2023-07-20T03:34:53;16.40;;;5.45;;
57746;SDS011;43580;44.014;20.466;2023-07-20T03:37:19;14.93;;;5.93;;
57746;SDS011;43580;44.014;20.466;2023-07-20T03:39:45;23.42;;;5.70;;
57746;SDS011;43580;44.014;20.466;2023-07-20T03:42:11;13.52;;;5.35;;
57746;SDS011;43580;44.014;20.466;2023-07-20T03:44:37;21.02;;;5.60;;
57746;SDS011;43580;44.014;20.466;2023-07-20T03:47:03;15.60;;;6.07;;
57746;SDS011;43580;44.014;20.466;2023-07-20T03:49:29;18.30;;;6.45;;
57746;SDS011;43580;44.014;20.466;2023-07-20T03:51:55;15.40;;;5.47;;
57746;SDS011;43580;44.014;20.466;2023-07-20T03:54:22;20.58;;;7.30;;
57746;SDS011;43580;44.014;20.466;2023-07-20T03:56:48;17.20;;;5.50;;
57746;SDS011;43580;44.014;20.466;2023-07-20T03:59:14;14.60;;;5.25;;
57746;SDS011;43580;44.014;20.466;2023-07-20T04:01:40;13.65;;;5.25;;
57746;SDS011;43580;44.014;20.466;2023-07-20T04:04:06;17.80;;;4.97;;
57746;SDS011;43580;44.014;20.466;2023-07-20T04:06:33;17.77;;;5.05;;
57746;SDS011;43580;44.014;20.466;2023-07-20T04:08:59;13.95;;;5.00;;
57746;SDS011;43580;44.014;20.466;2023-07-20T04:11:25;16.25;;;5.40;;
57746;SDS011;43580;44.014;20.466;2023-07-20T04:13:51;14.25;;;5.10;;
57746;SDS011;43580;44.014;20.466;2023-07-20T04:16:17;20.88;;;8.07;;
57746;SDS011;43580;44.014;20.466;2023-07-20T04:18:44;20.67;;;8.73;;
57746;SDS011;43580;44.014;20.466;2023-07-20T04:21:11;17.95;;;8.63;;
57746;SDS011;43580;44.014;20.466;2023-07-20T04:23:37;19.85;;;8.38;;
57746;SDS011;43580;44.014;20.466;2023-07-20T04:26:03;17.88;;;7.82;;
57746;SDS011;43580;44.014;20.466;2023-07-20T04:28:29;18.10;;;8.30;;
57746;SDS011;43580;44.014;20.466;2023-07-20T04:30:55;19.00;;;8.35;;
57746;SDS011;43580;44.014;20.466;2023-07-20T04:33:35;18.80;;;8.05;;
57746;SDS011;43580;44.014;20.466;2023-07-20T04:36:01;18.77;;;8.25;;
57746;SDS011;43580;44.014;20.466;2023-07-20T04:38:27;16.83;;;7.60;;
57746;SDS011;43580;44.014;20.466;2023-07-20T04:40:53;15.15;;;8.02;;
57746;SDS011;43580;44.014;20.466;2023-07-20T04:43:19;23.02;;;9.20;;
57746;SDS011;43580;44.014;20.466;2023-07-20T04:45:45;24.83;;;8.55;;
57746;SDS011;43580;44.014;20.466;2023-07-20T04:48:12;19.65;;;8.75;;
57746;SDS011;43580;44.014;20.466;2023-07-20T04:50:39;19.10;;;8.32;;
57746;SDS011;43580;44.014;20.466;2023-07-20T04:53:06;15.27;;;8.43;;
57746;SDS011;43580;44.014;20.466;2023-07-20T04:55:32;21.00;;;8.70;;
57746;SDS011;43580;44.014;20.466;2023-07-20T04:58:02;18.02;;;8.05;;
57746;SDS011;43580;44.014;20.466;2023-07-20T05:00:28;15.82;;;8.30;;
57746;SDS011;43580;44.014;20.466;2023-07-20T05:02:55;16.00;;;8.57;;
57746;SDS011;43580;44.014;20.466;2023-07-20T05:05:21;20.50;;;8.82;;
57746;SDS011;43580;44.014;20.466;2023-07-20T05:07:47;19.35;;;9.05;;
57746;SDS011;43580;44.014;20.466;2023-07-20T05:10:13;20.13;;;8.57;;
57746;SDS011;43580;44.014;20.466;2023-07-20T05:12:39;18.85;;;7.55;;
57746;SDS011;43580;44.014;20.466;2023-07-20T05:15:05;15.70;;;7.72;;
57746;SDS011;43580;44.014;20.466;2023-07-20T05:17:31;21.08;;;7.70;;
57746;SDS011;43580;44.014;20.466;2023-07-20T05:19:57;19.17;;;8.73;;
57746;SDS011;43580;44.014;20.466;2023-07-20T05:22:23;13.73;;;7.05;;
57746;SDS011;43580;44.014;20.466;2023-07-20T05:24:50;16.75;;;8.75;;
57746;SDS011;43580;44.014;20.466;2023-07-20T05:27:16;15.25;;;8.60;;
57746;SDS011;43580;44.014;20.466;2023-07-20T05:29:45;14.98;;;8.88;;
57746;SDS011;43580;44.014;20.466;2023-07-20T05:32:12;18.30;;;9.50;;
57746;SDS011;43580;44.014;20.466;2023-07-20T05:34:38;17.15;;;9.38;;
57746;SDS011;43580;44.014;20.466;2023-07-20T05:37:07;19.90;;;9.38;;
57746;SDS011;43580;44.014;20.466;2023-07-20T05:39:33;17.50;;;9.73;;
57746;SDS011;43580;44.014;20.466;2023-07-20T05:41:59;22.55;;;9.73;;
57746;SDS011;43580;44.014;20.466;2023-07-20T05:44:25;20.45;;;9.27;;
57746;SDS011;43580;44.014;20.466;2023-07-20T05:46:51;21.08;;;9.32;;
57746;SDS011;43580;44.014;20.466;2023-07-20T05:49:17;17.55;;;9.32;;
57746;SDS011;43580;44.014;20.466;2023-07-20T05:51:43;18.60;;;11.45;;
57746;SDS011;43580;44.014;20.466;2023-07-20T05:54:11;18.42;;;11.52;;
57746;SDS011;43580;44.014;20.466;2023-07-20T05:56:37;21.88;;;12.50;;
57746;SDS011;43580;44.014;20.466;2023-07-20T05:59:03;20.42;;;13.07;;
57746;SDS011;43580;44.014;20.466;2023-07-20T06:01:29;20.35;;;13.30;;
57746;SDS011;43580;44.014;20.466;2023-07-20T06:03:55;18.92;;;10.68;;
57746;SDS011;43580;44.014;20.466;2023-07-20T06:06:21;19.17;;;10.82;;
57746;SDS011;43580;44.014;20.466;2023-07-20T06:08:47;17.73;;;10.65;;
57746;SDS011;43580;44.014;20.466;2023-07-20T06:11:13;24.20;;;12.00;;
57746;SDS011;43580;44.014;20.466;2023-07-20T06:13:39;21.00;;;12.27;;
57746;SDS011;43580;44.014;20.466;2023-07-20T06:16:06;16.95;;;13.07;;
57746;SDS011;43580;44.014;20.466;2023-07-20T06:18:32;18.23;;;12.13;;
57746;SDS011;43580;44.014;20.466;2023-07-20T06:20:58;21.00;;;13.32;;
57746;SDS011;43580;44.014;20.466;2023-07-20T06:23:24;21.48;;;13.63;;
57746;SDS011;43580;44.014;20.466;2023-07-20T06:25:50;25.42;;;13.75;;
57746;SDS011;43580;44.014;20.466;2023-07-20T06:28:16;28.55;;;13.65;;
57746;SDS011;43580;44.014;20.466;2023-07-20T06:30:44;19.25;;;12.18;;
57746;SDS011;43580;44.014;20.466;2023-07-20T06:33:10;30.52;;;15.10;;
57746;SDS011;43580;44.014;20.466;2023-07-20T06:35:36;23.42;;;13.82;;
57746;SDS011;43580;44.014;20.466;2023-07-20T06:38:03;18.48;;;12.55;;
57746;SDS011;43580;44.014;20.466;2023-07-20T06:40:32;19.38;;;13.10;;
57746;SDS011;43580;44.014;20.466;2023-07-20T06:43:00;17.42;;;11.88;;
57746;SDS011;43580;44.014;20.466;2023-07-20T06:45:26;16.45;;;12.32;;
57746;SDS011;43580;44.014;20.466;2023-07-20T06:47:52;19.55;;;12.68;;
57746;SDS011;43580;44.014;20.466;2023-07-20T06:50:18;18.33;;;11.45;;
57746;SDS011;43580;44.014;20.466;2023-07-20T06:52:47;19.83;;;10.77;;
57746;SDS011;43580;44.014;20.466;2023-07-20T06:55:15;17.33;;;10.48;;
57746;SDS011;43580;44.014;20.466;2023-07-20T06:57:42;15.30;;;10.18;;
57746;SDS011;43580;44.014;20.466;2023-07-20T07:00:08;12.07;;;9.68;;
57746;SDS011;43580;44.014;20.466;2023-07-20T07:02:35;15.25;;;8.98;;
57746;SDS011;43580;44.014;20.466;2023-07-20T07:05:01;15.82;;;9.68;;
57746;SDS011;43580;44.014;20.466;2023-07-20T07:07:27;15.65;;;8.40;;
57746;SDS011;43580;44.014;20.466;2023-07-20T07:09:53;13.32;;;7.72;;
57746;SDS011;43580;44.014;20.466;2023-07-20T07:12:19;13.82;;;8.35;;
57746;SDS011;43580;44.014;20.466;2023-07-20T07:14:45;9.75;;;6.53;;
57746;SDS011;43580;44.014;20.466;2023-07-20T07:17:13;9.85;;;6.05;;
57746;SDS011;43580;44.014;20.466;2023-07-20T07:19:40;9.07;;;6.18;;
57746;SDS011;43580;44.014;20.466;2023-07-20T07:22:07;11.90;;;6.90;;
57746;SDS011;43580;44.014;20.466;2023-07-20T07:24:33;13.98;;;6.97;;
57746;SDS011;43580;44.014;20.466;2023-07-20T07:27:00;24.73;;;7.45;;
57746;SDS011;43580;44.014;20.466;2023-07-20T07:29:26;20.17;;;6.43;;
57746;SDS011;43580;44.014;20.466;2023-07-20T07:31:52;18.10;;;7.82;;
57746;SDS011;43580;44.014;20.466;2023-07-20T07:34:23;11.05;;;6.32;;
57746;SDS011;43580;44.014;20.466;2023-07-20T07:36:50;12.60;;;6.60;;
57746;SDS011;43580;44.014;20.466;2023-07-20T07:39:16;11.65;;;6.78;;
57746;SDS011;43580;44.014;20.466;2023-07-20T07:41:42;12.45;;;7.20;;
57746;SDS011;43580;44.014;20.466;2023-07-20T07:44:08;13.30;;;6.68;;
57746;SDS011;43580;44.014;20.466;2023-07-20T07:46:34;14.23;;;7.22;;
57746;SDS011;43580;44.014;20.466;2023-07-20T07:49:00;10.70;;;7.15;;
57746;SDS011;43580;44.014;20.466;2023-07-20T07:51:26;10.65;;;6.15;;
57746;SDS011;43580;44.014;20.466;2023-07-20T07:53:52;13.77;;;7.03;;
57746;SDS011;43580;44.014;20.466;2023-07-20T07:56:21;15.52;;;7.13;;
57746;SDS011;43580;44.014;20.466;2023-07-20T07:58:50;10.77;;;5.65;;
57746;SDS011;43580;44.014;20.466;2023-07-20T08:01:19;7.50;;;5.03;;
57746;SDS011;43580;44.014;20.466;2023-07-20T08:03:45;10.57;;;5.60;;
57746;SDS011;43580;44.014;20.466;2023-07-20T08:06:12;10.38;;;5.25;;
57746;SDS011;43580;44.014;20.466;2023-07-20T08:08:38;9.73;;;4.97;;
57746;SDS011;43580;44.014;20.466;2023-07-20T08:11:04;10.20;;;5.97;;
57746;SDS011;43580;44.014;20.466;2023-07-20T08:13:30;10.77;;;5.05;;
57746;SDS011;43580;44.014;20.466;2023-07-20T08:15:57;11.18;;;5.93;;
57746;SDS011;43580;44.014;20.466;2023-07-20T08:18:23;9.32;;;5.47;;
57746;SDS011;43580;44.014;20.466;2023-07-20T08:20:50;10.23;;;5.95;;
57746;SDS011;43580;44.014;20.466;2023-07-20T08:23:16;8.40;;;4.90;;
57746;SDS011;43580;44.014;20.466;2023-07-20T08:25:42;9.63;;;5.35;;
57746;SDS011;43580;44.014;20.466;2023-07-20T08:28:11;9.57;;;6.20;;
57746;SDS011;43580;44.014;20.466;2023-07-20T08:30:45;9.88;;;5.82;;
57746;SDS011;43580;44.014;20.466;2023-07-20T08:33:18;11.40;;;6.47;;
57746;SDS011;43580;44.014;20.466;2023-07-20T08:35:45;11.63;;;6.53;;
57746;SDS011;43580;44.014;20.466;2023-07-20T08:38:11;11.70;;;6.30;;
57746;SDS011;43580;44.014;20.466;2023-07-20T08:40:41;9.40;;;6.40;;
57746;SDS011;43580;44.014;20.466;2023-07-20T08:43:08;10.35;;;6.05;;
57746;SDS011;43580;44.014;20.466;2023-07-20T08:45:34;17.05;;;6.45;;
57746;SDS011;43580;44.014;20.466;2023-07-20T08:48:04;7.93;;;5.75;;
57746;SDS011;43580;44.014;20.466;2023-07-20T08:50:31;10.07;;;6.07;;
57746;SDS011;43580;44.014;20.466;2023-07-20T08:52:57;11.05;;;6.18;;
57746;SDS011;43580;44.014;20.466;2023-07-20T08:55:26;8.68;;;5.65;;
57746;SDS011;43580;44.014;20.466;2023-07-20T08:57:54;9.88;;;5.97;;
57746;SDS011;43580;44.014;20.466;2023-07-20T09:00:20;9.77;;;5.30;;
57746;SDS011;43580;44.014;20.466;2023-07-20T09:02:50;9.13;;;5.03;;
57746;SDS011;43580;44.014;20.466;2023-07-20T09:05:17;8.85;;;5.60;;
57746;SDS011;43580;44.014;20.466;2023-07-20T09:07:44;10.32;;;5.60;;
57746;SDS011;43580;44.014;20.466;2023-07-20T09:10:10;11.57;;;6.00;;
57746;SDS011;43580;44.014;20.466;2023-07-20T09:12:40;9.48;;;5.20;;
57746;SDS011;43580;44.014;20.466;2023-07-20T09:15:10;10.73;;;5.10;;
57746;SDS011;43580;44.014;20.466;2023-07-20T09:17:36;8.25;;;5.00;;
57746;SDS011;43580;44.014;20.466;2023-07-20T09:20:05;10.15;;;5.80;;
57746;SDS011;43580;44.014;20.466;2023-07-20T09:22:36;8.32;;;5.30;;
57746;SDS011;43580;44.014;20.466;2023-07-20T09:25:14;12.25;;;5.25;;
57746;SDS011;43580;44.014;20.466;2023-07-20T09:27:42;9.07;;;5.28;;
57746;SDS011;43580;44.014;20.466;2023-07-20T09:30:08;10.95;;;4.80;;
57746;SDS011;43580;44.014;20.466;2023-07-20T09:32:38;9.80;;;5.07;;
57746;SDS011;43580;44.014;20.466;2023-07-20T09:35:29;7.22;;;4.18;;
57746;SDS011;43580;44.014;20.466;2023-07-20T09:38:00;9.32;;;4.38;;
57746;SDS011;43580;44.014;20.466;2023-07-20T09:40:29;7.95;;;4.78;;
57746;SDS011;43580;44.014;20.466;2023-07-20T09:42:55;7.13;;;4.65;;
57746;SDS011;43580;44.014;20.466;2023-07-20T09:45:34;7.53;;;4.35;;
57746;SDS011;43580;44.014;20.466;2023-07-20T09:48:04;7.55;;;4.35;;
57746;SDS011;43580;44.014;20.466;2023-07-20T09:50:31;9.27;;;4.65;;
57746;SDS011;43580;44.014;20.466;2023-07-20T09:52:57;8.30;;;4.95;;
57746;SDS011;43580;44.014;20.466;2023-07-20T09:55:27;7.50;;;4.63;;
57746;SDS011;43580;44.014;20.466;2023-07-20T09:57:55;7.60;;;4.70;;
57746;SDS011;43580;44.014;20.466;2023-07-20T10:00:21;9.32;;;4.60;;
57746;SDS011;43580;44.014;20.466;2023-07-20T10:02:50;10.30;;;4.95;;
57746;SDS011;43580;44.014;20.466;2023-07-20T10:05:19;9.00;;;4.47;;
57746;SDS011;43580;44.014;20.466;2023-07-20T10:07:47;6.57;;;3.58;;
57746;SDS011;43580;44.014;20.466;2023-07-20T10:10:14;5.25;;;3.30;;
57746;SDS011;43580;44.014;20.466;2023-07-20T10:12:42;6.68;;;3.58;;
57746;SDS011;43580;44.014;20.466;2023-07-20T10:15:11;10.57;;;4.05;;
57746;SDS011;43580;44.014;20.466;2023-07-20T10:17:39;5.00;;;3.53;;
57746;SDS011;43580;44.014;20.466;2023-07-20T10:20:06;7.13;;;4.03;;
57746;SDS011;43580;44.014;20.466;2023-07-20T10:22:34;5.82;;;3.30;;
57746;SDS011;43580;44.014;20.466;2023-07-20T10:25:01;7.18;;;3.33;;
57746;SDS011;43580;44.014;20.466;2023-07-20T10:27:29;7.57;;;3.90;;
57746;SDS011;43580;44.014;20.466;2023-07-20T10:29:56;7.45;;;3.60;;
57746;SDS011;43580;44.014;20.466;2023-07-20T10:32:24;5.90;;;3.63;;
57746;SDS011;43580;44.014;20.466;2023-07-20T10:34:50;6.72;;;4.10;;
57746;SDS011;43580;44.014;20.466;2023-07-20T10:40:23;5.47;;;3.65;;
57746;SDS011;43580;44.014;20.466;2023-07-20T10:42:49;11.35;;;4.45;;
57746;SDS011;43580;44.014;20.466;2023-07-20T10:45:17;6.03;;;3.45;;
57746;SDS011;43580;44.014;20.466;2023-07-20T10:47:45;8.90;;;4.30;;
57746;SDS011;43580;44.014;20.466;2023-07-20T10:50:12;7.70;;;3.83;;
57746;SDS011;43580;44.014;20.466;2023-07-20T10:52:41;9.63;;;4.03;;
57746;SDS011;43580;44.014;20.466;2023-07-20T10:55:16;7.03;;;3.58;;
57746;SDS011;43580;44.014;20.466;2023-07-20T10:57:42;7.63;;;3.70;;
57746;SDS011;43580;44.014;20.466;2023-07-20T11:00:09;6.25;;;3.75;;
57746;SDS011;43580;44.014;20.466;2023-07-20T11:02:42;7.22;;;3.67;;
57746;SDS011;43580;44.014;20.466;2023-07-20T11:05:08;8.30;;;4.18;;
57746;SDS011;43580;44.014;20.466;2023-07-20T11:07:54;9.45;;;4.32;;
57746;SDS011;43580;44.014;20.466;2023-07-20T11:10:23;5.65;;;4.20;;
57746;SDS011;43580;44.014;20.466;2023-07-20T11:13:34;7.15;;;3.97;;
57746;SDS011;43580;44.014;20.466;2023-07-20T11:15:52;8.77;;;3.95;;
57746;SDS011;43580;44.014;20.466;2023-07-20T11:18:27;10.50;;;3.92;;
57746;SDS011;43580;44.014;20.466;2023-07-20T11:20:53;17.90;;;4.07;;
57746;SDS011;43580;44.014;20.466;2023-07-20T11:23:19;7.40;;;3.22;;
57746;SDS011;43580;44.014;20.466;2023-07-20T11:25:46;8.75;;;4.10;;
57746;SDS011;43580;44.014;20.466;2023-07-20T11:28:12;8.35;;;3.35;;
57746;SDS011;43580;44.014;20.466;2023-07-20T11:30:38;5.63;;;3.05;;
57746;SDS011;43580;44.014;20.466;2023-07-20T11:33:05;5.72;;;2.92;;
57746;SDS011;43580;44.014;20.466;2023-07-20T11:35:43;5.90;;;3.10;;
57746;SDS011;43580;44.014;20.466;2023-07-20T11:38:13;5.88;;;3.38;;
57746;SDS011;43580;44.014;20.466;2023-07-20T11:40:46;6.10;;;3.40;;
57746;SDS011;43580;44.014;20.466;2023-07-20T11:43:12;7.50;;;3.38;;
57746;SDS011;43580;44.014;20.466;2023-07-20T11:45:41;6.75;;;3.03;;
57746;SDS011;43580;44.014;20.466;2023-07-20T11:48:07;6.05;;;3.17;;
57746;SDS011;43580;44.014;20.466;2023-07-20T11:50:39;8.13;;;3.10;;
57746;SDS011;43580;44.014;20.466;2023-07-20T11:53:05;6.80;;;3.17;;
57746;SDS011;43580;44.014;20.466;2023-07-20T11:55:32;10.00;;;3.75;;
57746;SDS011;43580;44.014;20.466;2023-07-20T11:58:04;8.40;;;3.38;;
57746;SDS011;43580;44.014;20.466;2023-07-20T12:00:31;4.72;;;2.85;;
57746;SDS011;43580;44.014;20.466;2023-07-20T12:02:57;6.40;;;2.70;;
57746;SDS011;43580;44.014;20.466;2023-07-20T12:05:23;4.50;;;2.60;;
57746;SDS011;43580;44.014;20.466;2023-07-20T12:07:49;4.70;;;2.85;;
57746;SDS011;43580;44.014;20.466;2023-07-20T12:10:27;5.80;;;2.45;;
57746;SDS011;43580;44.014;20.466;2023-07-20T12:12:54;6.40;;;2.90;;
57746;SDS011;43580;44.014;20.466;2023-07-20T12:15:24;5.53;;;2.92;;
57746;SDS011;43580;44.014;20.466;2023-07-20T12:18:00;4.90;;;2.65;;
57746;SDS011;43580;44.014;20.466;2023-07-20T12:20:27;6.63;;;2.95;;
57746;SDS011;43580;44.014;20.466;2023-07-20T12:22:59;8.60;;;3.60;;
57746;SDS011;43580;44.014;20.466;2023-07-20T12:25:33;6.10;;;3.35;;
57746;SDS011;43580;44.014;20.466;2023-07-20T12:28:00;6.90;;;3.45;;
57746;SDS011;43580;44.014;20.466;2023-07-20T12:30:28;6.10;;;3.60;;
57746;SDS011;43580;44.014;20.466;2023-07-20T12:32:56;8.25;;;3.75;;
57746;SDS011;43580;44.014;20.466;2023-07-20T12:35:22;5.90;;;3.30;;
57746;SDS011;43580;44.014;20.466;2023-07-20T12:37:48;7.90;;;3.90;;
57746;SDS011;43580;44.014;20.466;2023-07-20T12:40:16;6.95;;;3.47;;
57746;SDS011;43580;44.014;20.466;2023-07-20T12:42:42;10.52;;;3.45;;
57746;SDS011;43580;44.014;20.466;2023-07-20T12:45:09;5.70;;;3.15;;
57746;SDS011;43580;44.014;20.466;2023-07-20T12:47:36;5.95;;;3.38;;
57746;SDS011;43580;44.014;20.466;2023-07-20T12:50:02;8.38;;;3.55;;
57746;SDS011;43580;44.014;20.466;2023-07-20T12:52:31;5.93;;;3.55;;
57746;SDS011;43580;44.014;20.466;2023-07-20T12:54:57;4.95;;;3.22;;
57746;SDS011;43580;44.014;20.466;2023-07-20T12:57:24;7.35;;;3.40;;
57746;SDS011;43580;44.014;20.466;2023-07-20T12:59:50;9.20;;;3.65;;
57746;SDS011;43580;44.014;20.466;2023-07-20T13:02:16;6.35;;;3.55;;
57746;SDS011;43580;44.014;20.466;2023-07-20T13:04:42;6.05;;;3.70;;
57746;SDS011;43580;44.014;20.466;2023-07-20T13:07:09;6.20;;;3.65;;
57746;SDS011;43580;44.014;20.466;2023-07-20T13:09:37;6.63;;;4.20;;
57746;SDS011;43580;44.014;20.466;2023-07-20T13:12:03;7.75;;;4.40;;
57746;SDS011;43580;44.014;20.466;2023-07-20T13:14:29;7.90;;;3.70;;
57746;SDS011;43580;44.014;20.466;2023-07-20T13:16:57;6.88;;;3.78;;
57746;SDS011;43580;44.014;20.466;2023-07-20T13:19:23;6.55;;;3.75;;
57746;SDS011;43580;44.014;20.466;2023-07-20T13:21:50;7.53;;;4.05;;
57746;SDS011;43580;44.014;20.466;2023-07-20T13:24:16;6.60;;;4.65;;
57746;SDS011;43580;44.014;20.466;2023-07-20T13:26:45;7.35;;;4.10;;
57746;SDS011;43580;44.014;20.466;2023-07-20T13:29:11;7.40;;;4.25;;
57746;SDS011;43580;44.014;20.466;2023-07-20T13:31:37;7.05;;;3.95;;
57746;SDS011;43580;44.014;20.466;2023-07-20T13:34:03;6.50;;;3.75;;
57746;SDS011;43580;44.014;20.466;2023-07-20T13:36:30;7.97;;;4.00;;
57746;SDS011;43580;44.014;20.466;2023-07-20T13:38:57;6.70;;;4.00;;
57746;SDS011;43580;44.014;20.466;2023-07-20T13:41:23;6.32;;;3.45;;
57746;SDS011;43580;44.014;20.466;2023-07-20T13:43:49;6.55;;;3.88;;
57746;SDS011;43580;44.014;20.466;2023-07-20T13:46:15;6.82;;;3.90;;
57746;SDS011;43580;44.014;20.466;2023-07-20T13:48:41;8.65;;;4.10;;
57746;SDS011;43580;44.014;20.466;2023-07-20T13:51:07;6.82;;;3.80;;
57746;SDS011;43580;44.014;20.466;2023-07-20T13:53:33;5.72;;;3.50;;
57746;SDS011;43580;44.014;20.466;2023-07-20T13:55:59;7.90;;;3.85;;
57746;SDS011;43580;44.014;20.466;2023-07-20T13:58:26;6.13;;;3.88;;
57746;SDS011;43580;44.014;20.466;2023-07-20T14:00:54;6.57;;;4.47;;
57746;SDS011;43580;44.014;20.466;2023-07-20T14:03:23;6.18;;;4.07;;
57746;SDS011;43580;44.014;20.466;2023-07-20T14:05:49;7.05;;;4.00;;
57746;SDS011;43580;44.014;20.466;2023-07-20T14:08:18;6.18;;;3.80;;
57746;SDS011;43580;44.014;20.466;2023-07-20T14:10:44;6.90;;;3.70;;
57746;SDS011;43580;44.014;20.466;2023-07-20T14:13:10;6.07;;;3.75;;
57746;SDS011;43580;44.014;20.466;2023-07-20T14:15:37;9.95;;;3.92;;
57746;SDS011;43580;44.014;20.466;2023-07-20T14:18:03;8.27;;;4.03;;
57746;SDS011;43580;44.014;20.466;2023-07-20T14:20:29;5.85;;;3.67;;
57746;SDS011;43580;44.014;20.466;2023-07-20T14:22:55;7.05;;;3.90;;
57746;SDS011;43580;44.014;20.466;2023-07-20T14:25:24;7.15;;;4.00;;
57746;SDS011;43580;44.014;20.466;2023-07-20T14:27:50;7.22;;;3.53;;
57746;SDS011;43580;44.014;20.466;2023-07-20T14:30:16;8.30;;;3.88;;
57746;SDS011;43580;44.014;20.466;2023-07-20T14:32:44;6.25;;;4.30;;
57746;SDS011;43580;44.014;20.466;2023-07-20T14:35:10;5.40;;;3.72;;
57746;SDS011;43580;44.014;20.466;2023-07-20T14:37:36;6.50;;;4.53;;
57746;SDS011;43580;44.014;20.466;2023-07-20T14:40:03;7.75;;;4.18;;
57746;SDS011;43580;44.014;20.466;2023-07-20T14:42:30;7.88;;;4.10;;